sensor_id;sensor_type;location;lat;lon;timestamp;temperature;humidity
7738;DHT22;29398;45.328;5.558;2022-11-02T00:01:18;15.90;99.90
7738;DHT22;29398;45.328;5.558;2022-11-02T00:02:20;15.80;99.90
7738;DHT22;29398;45.328;5.558;2022-11-02T00:04:25;15.70;99.90
7738;DHT22;29398;45.328;5.558;2022-11-02T00:05:27;15.70;99.90
7738;DHT22;29398;45.328;5.558;2022-11-02T00:07:30;15.70;99.90
7738;DHT22;29398;45.328;5.558;2022-11-02T00:11:37;15.80;99.90
7738;DHT22;29398;45.328;5.558;2022-11-02T00:13:41;15.90;99.90
7738;DHT22;29398;45.328;5.558;2022-11-02T00:15:44;15.90;99.90
7738;DHT22;29398;45.328;5.558;2022-11-02T00:16:46;15.80;99.90
7738;DHT22;29398;45.328;5.558;2022-11-02T00:17:52;15.90;99.90
7738;DHT22;29398;45.328;5.558;2022-11-02T00:18:55;15.90;99.90
7738;DHT22;29398;45.328;5.558;2022-11-02T00:20:00;15.90;99.90
7738;DHT22;29398;45.328;5.558;2022-11-02T00:21:02;15.90;99.90
7738;DHT22;29398;45.328;5.558;2022-11-02T00:23:06;15.90;99.90
7738;DHT22;29398;45.328;5.558;2022-11-02T00:25:13;15.80;99.90
7738;DHT22;29398;45.328;5.558;2022-11-02T00:26:17;15.80;99.90
7738;DHT22;29398;45.328;5.558;2022-11-02T00:28:22;15.80;99.90
7738;DHT22;29398;45.328;5.558;2022-11-02T00:31:26;15.90;99.90
7738;DHT22;29398;45.328;5.558;2022-11-02T00:32:28;15.90;99.90
7738;DHT22;29398;45.328;5.558;2022-11-02T00:33:31;15.90;99.90
7738;DHT22;29398;45.328;5.558;2022-11-02T00:34:33;15.90;99.90
7738;DHT22;29398;45.328;5.558;2022-11-02T00:35:36;15.80;99.90
7738;DHT22;29398;45.328;5.558;2022-11-02T00:36:38;15.80;99.90
7738;DHT22;29398;45.328;5.558;2022-11-02T00:37:39;15.70;99.90
7738;DHT22;29398;45.328;5.558;2022-11-02T00:39:43;15.60;99.90
7738;DHT22;29398;45.328;5.558;2022-11-02T00:42:48;15.50;99.90
7738;DHT22;29398;45.328;5.558;2022-11-02T00:43:49;15.50;99.90
7738;DHT22;29398;45.328;5.558;2022-11-02T00:44:51;15.60;99.90
7738;DHT22;29398;45.328;5.558;2022-11-02T00:45:53;15.60;99.90
7738;DHT22;29398;45.328;5.558;2022-11-02T00:46:56;15.60;99.90
7738;DHT22;29398;45.328;5.558;2022-11-02T00:47:58;15.60;99.90
7738;DHT22;29398;45.328;5.558;2022-11-02T00:49:02;15.60;99.90
7738;DHT22;29398;45.328;5.558;2022-11-02T00:50:06;15.60;99.90
7738;DHT22;29398;45.328;5.558;2022-11-02T00:51:12;15.60;99.90
7738;DHT22;29398;45.328;5.558;2022-11-02T00:53:23;15.50;99.90
7738;DHT22;29398;45.328;5.558;2022-11-02T00:54:26;15.50;99.90
7738;DHT22;29398;45.328;5.558;2022-11-02T00:56:35;15.60;99.90
7738;DHT22;29398;45.328;5.558;2022-11-02T00:57:39;15.60;99.90
7738;DHT22;29398;45.328;5.558;2022-11-02T00:59:45;15.70;99.90
7738;DHT22;29398;45.328;5.558;2022-11-02T01:01:51;15.60;99.90
7738;DHT22;29398;45.328;5.558;2022-11-02T01:03:55;15.70;99.90
7738;DHT22;29398;45.328;5.558;2022-11-02T01:06:05;15.70;99.90
7738;DHT22;29398;45.328;5.558;2022-11-02T01:09:13;15.70;99.90
7738;DHT22;29398;45.328;5.558;2022-11-02T01:11:18;15.70;99.90
7738;DHT22;29398;45.328;5.558;2022-11-02T01:12:21;15.70;99.90
7738;DHT22;29398;45.328;5.558;2022-11-02T01:14:24;15.80;99.90
7738;DHT22;29398;45.328;5.558;2022-11-02T01:16:28;15.80;99.90
7738;DHT22;29398;45.328;5.558;2022-11-02T01:17:29;15.80;99.90
7738;DHT22;29398;45.328;5.558;2022-11-02T01:18:31;15.80;99.90
7738;DHT22;29398;45.328;5.558;2022-11-02T01:20:35;15.80;99.90
7738;DHT22;29398;45.328;5.558;2022-11-02T01:21:36;15.80;99.90
7738;DHT22;29398;45.328;5.558;2022-11-02T01:22:40;15.80;99.90
7738;DHT22;29398;45.328;5.558;2022-11-02T01:23:41;15.80;99.90
7738;DHT22;29398;45.328;5.558;2022-11-02T01:24:44;15.80;99.90
7738;DHT22;29398;45.328;5.558;2022-11-02T01:25:45;15.80;99.90
7738;DHT22;29398;45.328;5.558;2022-11-02T01:26:49;15.70;99.90
7738;DHT22;29398;45.328;5.558;2022-11-02T01:27:50;15.80;99.90
7738;DHT22;29398;45.328;5.558;2022-11-02T01:29:54;15.80;99.90
7738;DHT22;29398;45.328;5.558;2022-11-02T01:30:56;15.80;99.90
7738;DHT22;29398;45.328;5.558;2022-11-02T01:31:58;15.70;99.90
7738;DHT22;29398;45.328;5.558;2022-11-02T01:33:00;15.80;99.90
7738;DHT22;29398;45.328;5.558;2022-11-02T01:35:08;15.80;99.90
7738;DHT22;29398;45.328;5.558;2022-11-02T01:36:14;15.70;99.90
7738;DHT22;29398;45.328;5.558;2022-11-02T01:37:16;15.80;99.90
7738;DHT22;29398;45.328;5.558;2022-11-02T01:38:18;15.80;99.90
7738;DHT22;29398;45.328;5.558;2022-11-02T01:39:21;15.80;99.90
7738;DHT22;29398;45.328;5.558;2022-11-02T01:42:27;15.80;99.90
7738;DHT22;29398;45.328;5.558;2022-11-02T01:43:31;15.80;99.90
7738;DHT22;29398;45.328;5.558;2022-11-02T01:44:34;15.80;99.90
7738;DHT22;29398;45.328;5.558;2022-11-02T01:45:36;15.80;99.90
7738;DHT22;29398;45.328;5.558;2022-11-02T01:46:40;15.80;99.90
7738;DHT22;29398;45.328;5.558;2022-11-02T01:47:44;15.80;99.90
7738;DHT22;29398;45.328;5.558;2022-11-02T01:48:49;15.80;99.90
7738;DHT22;29398;45.328;5.558;2022-11-02T01:49:54;15.80;99.90
7738;DHT22;29398;45.328;5.558;2022-11-02T01:51:01;15.80;99.90
7738;DHT22;29398;45.328;5.558;2022-11-02T01:52:05;15.80;99.90
7738;DHT22;29398;45.328;5.558;2022-11-02T01:53:09;15.90;99.90
7738;DHT22;29398;45.328;5.558;2022-11-02T01:54:14;15.80;99.90
7738;DHT22;29398;45.328;5.558;2022-11-02T01:55:19;15.70;99.90
7738;DHT22;29398;45.328;5.558;2022-11-02T01:56:23;15.90;99.90
7738;DHT22;29398;45.328;5.558;2022-11-02T01:57:26;15.80;99.90
7738;DHT22;29398;45.328;5.558;2022-11-02T01:58:29;15.70;99.90
7738;DHT22;29398;45.328;5.558;2022-11-02T01:59:36;15.60;99.90
7738;DHT22;29398;45.328;5.558;2022-11-02T02:00:39;15.60;99.90
7738;DHT22;29398;45.328;5.558;2022-11-02T02:01:40;15.60;99.90
7738;DHT22;29398;45.328;5.558;2022-11-02T02:02:48;15.60;99.90
7738;DHT22;29398;45.328;5.558;2022-11-02T02:03:53;15.60;99.90
7738;DHT22;29398;45.328;5.558;2022-11-02T02:05:03;15.60;99.90
7738;DHT22;29398;45.328;5.558;2022-11-02T02:06:07;15.60;99.90
7738;DHT22;29398;45.328;5.558;2022-11-02T02:07:11;15.60;99.90
7738;DHT22;29398;45.328;5.558;2022-11-02T02:08:16;15.60;99.90
7738;DHT22;29398;45.328;5.558;2022-11-02T02:09:20;15.60;99.90
7738;DHT22;29398;45.328;5.558;2022-11-02T02:10:23;15.60;99.90
7738;DHT22;29398;45.328;5.558;2022-11-02T02:11:27;15.60;99.90
7738;DHT22;29398;45.328;5.558;2022-11-02T02:12:29;15.60;99.90
7738;DHT22;29398;45.328;5.558;2022-11-02T02:13:32;15.60;99.90
7738;DHT22;29398;45.328;5.558;2022-11-02T02:14:34;15.60;99.90
7738;DHT22;29398;45.328;5.558;2022-11-02T02:15:40;15.60;99.90
7738;DHT22;29398;45.328;5.558;2022-11-02T02:18:11;15.60;99.90
7738;DHT22;29398;45.328;5.558;2022-11-02T02:19:27;15.60;99.90
7738;DHT22;29398;45.328;5.558;2022-11-02T02:20:45;15.60;99.90
7738;DHT22;29398;45.328;5.558;2022-11-02T02:22:02;15.60;99.90
7738;DHT22;29398;45.328;5.558;2022-11-02T02:23:19;15.60;99.90
7738;DHT22;29398;45.328;5.558;2022-11-02T02:25:53;15.40;99.90
7738;DHT22;29398;45.328;5.558;2022-11-02T02:27:06;15.40;99.90
7738;DHT22;29398;45.328;5.558;2022-11-02T02:28:16;15.30;99.90
7738;DHT22;29398;45.328;5.558;2022-11-02T02:29:20;15.20;99.90
7738;DHT22;29398;45.328;5.558;2022-11-02T02:30:22;15.30;99.90
7738;DHT22;29398;45.328;5.558;2022-11-02T02:31:32;15.30;99.90
7738;DHT22;29398;45.328;5.558;2022-11-02T02:32:48;15.30;99.90
7738;DHT22;29398;45.328;5.558;2022-11-02T02:33:55;15.30;99.90
7738;DHT22;29398;45.328;5.558;2022-11-02T02:34:58;15.30;99.90
7738;DHT22;29398;45.328;5.558;2022-11-02T02:36:04;15.30;99.90
7738;DHT22;29398;45.328;5.558;2022-11-02T02:37:13;15.30;99.90
7738;DHT22;29398;45.328;5.558;2022-11-02T02:38:23;15.40;99.90
7738;DHT22;29398;45.328;5.558;2022-11-02T02:39:35;15.40;99.90
7738;DHT22;29398;45.328;5.558;2022-11-02T02:40:43;15.40;99.90
7738;DHT22;29398;45.328;5.558;2022-11-02T02:41:54;15.40;99.90
7738;DHT22;29398;45.328;5.558;2022-11-02T02:43:02;15.40;99.90
7738;DHT22;29398;45.328;5.558;2022-11-02T02:44:09;15.40;99.90
7738;DHT22;29398;45.328;5.558;2022-11-02T02:45:17;15.40;99.90
7738;DHT22;29398;45.328;5.558;2022-11-02T02:46:25;15.40;99.90
7738;DHT22;29398;45.328;5.558;2022-11-02T02:47:31;15.40;99.90
7738;DHT22;29398;45.328;5.558;2022-11-02T02:48:35;15.40;99.90
7738;DHT22;29398;45.328;5.558;2022-11-02T02:49:42;15.40;99.90
7738;DHT22;29398;45.328;5.558;2022-11-02T02:50:48;15.40;99.90
7738;DHT22;29398;45.328;5.558;2022-11-02T02:51:50;15.40;99.90
7738;DHT22;29398;45.328;5.558;2022-11-02T02:52:54;15.40;99.90
7738;DHT22;29398;45.328;5.558;2022-11-02T02:53:59;15.50;99.90
7738;DHT22;29398;45.328;5.558;2022-11-02T02:55:05;15.50;99.90
7738;DHT22;29398;45.328;5.558;2022-11-02T02:56:07;15.30;99.90
7738;DHT22;29398;45.328;5.558;2022-11-02T02:57:15;15.50;99.90
7738;DHT22;29398;45.328;5.558;2022-11-02T02:58:20;15.50;99.90
7738;DHT22;29398;45.328;5.558;2022-11-02T02:59:27;15.50;99.90
7738;DHT22;29398;45.328;5.558;2022-11-02T03:00:33;15.50;99.90
7738;DHT22;29398;45.328;5.558;2022-11-02T03:01:38;15.50;99.90
7738;DHT22;29398;45.328;5.558;2022-11-02T03:02:41;15.50;99.90
7738;DHT22;29398;45.328;5.558;2022-11-02T03:04:00;15.50;99.90
7738;DHT22;29398;45.328;5.558;2022-11-02T03:05:21;15.50;99.90
7738;DHT22;29398;45.328;5.558;2022-11-02T03:06:25;15.50;99.90
7738;DHT22;29398;45.328;5.558;2022-11-02T03:07:31;15.50;99.90
7738;DHT22;29398;45.328;5.558;2022-11-02T03:08:35;15.60;99.90
7738;DHT22;29398;45.328;5.558;2022-11-02T03:09:40;15.60;99.90
7738;DHT22;29398;45.328;5.558;2022-11-02T03:10:47;15.50;99.90
7738;DHT22;29398;45.328;5.558;2022-11-02T03:12:00;15.50;99.90
7738;DHT22;29398;45.328;5.558;2022-11-02T03:13:28;15.50;99.90
7738;DHT22;29398;45.328;5.558;2022-11-02T03:14:44;15.50;99.90
7738;DHT22;29398;45.328;5.558;2022-11-02T03:15:55;15.50;99.90
7738;DHT22;29398;45.328;5.558;2022-11-02T03:17:08;15.50;99.90
7738;DHT22;29398;45.328;5.558;2022-11-02T03:18:20;15.50;99.90
7738;DHT22;29398;45.328;5.558;2022-11-02T03:19:33;15.50;99.90
7738;DHT22;29398;45.328;5.558;2022-11-02T03:20:46;15.50;99.90
7738;DHT22;29398;45.328;5.558;2022-11-02T03:21:57;15.60;99.90
7738;DHT22;29398;45.328;5.558;2022-11-02T03:23:17;15.50;99.90
7738;DHT22;29398;45.328;5.558;2022-11-02T03:24:26;15.50;99.90
7738;DHT22;29398;45.328;5.558;2022-11-02T03:25:37;15.50;99.90
7738;DHT22;29398;45.328;5.558;2022-11-02T03:26:46;15.50;99.90
7738;DHT22;29398;45.328;5.558;2022-11-02T03:27:53;15.50;99.90
7738;DHT22;29398;45.328;5.558;2022-11-02T03:29:02;15.50;99.90
7738;DHT22;29398;45.328;5.558;2022-11-02T03:30:08;15.50;99.90
7738;DHT22;29398;45.328;5.558;2022-11-02T03:31:17;15.50;99.90
7738;DHT22;29398;45.328;5.558;2022-11-02T03:32:25;15.60;99.90
7738;DHT22;29398;45.328;5.558;2022-11-02T03:33:32;15.50;99.90
7738;DHT22;29398;45.328;5.558;2022-11-02T03:34:38;15.50;99.90
7738;DHT22;29398;45.328;5.558;2022-11-02T03:35:46;15.60;99.90
7738;DHT22;29398;45.328;5.558;2022-11-02T03:36:56;15.50;99.90
7738;DHT22;29398;45.328;5.558;2022-11-02T03:38:02;15.50;99.90
7738;DHT22;29398;45.328;5.558;2022-11-02T03:39:07;15.60;99.90
7738;DHT22;29398;45.328;5.558;2022-11-02T03:40:15;15.50;99.90
7738;DHT22;29398;45.328;5.558;2022-11-02T03:41:19;15.60;99.90
7738;DHT22;29398;45.328;5.558;2022-11-02T03:42:26;15.50;99.90
7738;DHT22;29398;45.328;5.558;2022-11-02T03:43:29;15.60;99.90
7738;DHT22;29398;45.328;5.558;2022-11-02T03:44:37;15.60;99.90
7738;DHT22;29398;45.328;5.558;2022-11-02T03:45:43;15.60;99.90
7738;DHT22;29398;45.328;5.558;2022-11-02T03:46:49;15.60;99.90
7738;DHT22;29398;45.328;5.558;2022-11-02T03:47:55;15.60;99.90
7738;DHT22;29398;45.328;5.558;2022-11-02T03:49:00;15.60;99.90
7738;DHT22;29398;45.328;5.558;2022-11-02T03:50:03;15.50;99.90
7738;DHT22;29398;45.328;5.558;2022-11-02T03:51:10;15.50;99.90
7738;DHT22;29398;45.328;5.558;2022-11-02T03:52:15;15.50;99.90
7738;DHT22;29398;45.328;5.558;2022-11-02T03:53:21;15.60;99.90
7738;DHT22;29398;45.328;5.558;2022-11-02T03:54:30;15.50;99.90
7738;DHT22;29398;45.328;5.558;2022-11-02T03:55:41;15.50;99.90
7738;DHT22;29398;45.328;5.558;2022-11-02T03:56:48;15.60;99.90
7738;DHT22;29398;45.328;5.558;2022-11-02T03:57:51;15.50;99.90
7738;DHT22;29398;45.328;5.558;2022-11-02T03:58:58;15.50;99.90
7738;DHT22;29398;45.328;5.558;2022-11-02T04:00:08;15.50;99.90
7738;DHT22;29398;45.328;5.558;2022-11-02T04:01:17;15.60;99.90
7738;DHT22;29398;45.328;5.558;2022-11-02T04:02:21;15.60;99.90
7738;DHT22;29398;45.328;5.558;2022-11-02T04:03:23;15.60;99.90
7738;DHT22;29398;45.328;5.558;2022-11-02T04:04:27;15.60;99.90
7738;DHT22;29398;45.328;5.558;2022-11-02T04:05:28;15.50;99.90
7738;DHT22;29398;45.328;5.558;2022-11-02T04:06:32;15.50;99.90
7738;DHT22;29398;45.328;5.558;2022-11-02T04:07:35;15.50;99.90
7738;DHT22;29398;45.328;5.558;2022-11-02T04:08:52;15.50;99.90
7738;DHT22;29398;45.328;5.558;2022-11-02T04:09:55;15.50;99.90
7738;DHT22;29398;45.328;5.558;2022-11-02T04:10:56;15.50;99.90
7738;DHT22;29398;45.328;5.558;2022-11-02T04:12:18;15.50;99.90
7738;DHT22;29398;45.328;5.558;2022-11-02T04:13:38;15.50;99.90
7738;DHT22;29398;45.328;5.558;2022-11-02T04:15:00;15.50;99.90
7738;DHT22;29398;45.328;5.558;2022-11-02T04:16:02;15.50;99.90
7738;DHT22;29398;45.328;5.558;2022-11-02T04:17:06;15.50;99.90
7738;DHT22;29398;45.328;5.558;2022-11-02T04:18:27;15.50;99.90
7738;DHT22;29398;45.328;5.558;2022-11-02T04:19:46;15.50;99.90
7738;DHT22;29398;45.328;5.558;2022-11-02T04:20:48;15.50;99.90
7738;DHT22;29398;45.328;5.558;2022-11-02T04:21:50;15.50;99.90
7738;DHT22;29398;45.328;5.558;2022-11-02T04:25:52;15.50;99.90
7738;DHT22;29398;45.328;5.558;2022-11-02T04:27:15;15.50;99.90
7738;DHT22;29398;45.328;5.558;2022-11-02T04:28:17;15.50;99.90
7738;DHT22;29398;45.328;5.558;2022-11-02T04:30:24;15.50;99.90
7738;DHT22;29398;45.328;5.558;2022-11-02T04:32:36;15.50;99.90
7738;DHT22;29398;45.328;5.558;2022-11-02T04:33:57;15.50;99.90
7738;DHT22;29398;45.328;5.558;2022-11-02T04:34:59;15.50;99.90
7738;DHT22;29398;45.328;5.558;2022-11-02T04:36:01;15.50;99.90
7738;DHT22;29398;45.328;5.558;2022-11-02T04:38:26;15.60;99.90
7738;DHT22;29398;45.328;5.558;2022-11-02T04:39:41;15.50;99.90
7738;DHT22;29398;45.328;5.558;2022-11-02T04:40:43;15.50;99.90
7738;DHT22;29398;45.328;5.558;2022-11-02T04:41:45;15.50;99.90
7738;DHT22;29398;45.328;5.558;2022-11-02T04:43:15;15.50;99.90
7738;DHT22;29398;45.328;5.558;2022-11-02T04:44:17;15.50;99.90
7738;DHT22;29398;45.328;5.558;2022-11-02T04:46:31;15.60;99.90
7738;DHT22;29398;45.328;5.558;2022-11-02T04:47:34;15.50;99.90
7738;DHT22;29398;45.328;5.558;2022-11-02T04:49:37;15.60;99.90
7738;DHT22;29398;45.328;5.558;2022-11-02T04:51:45;15.60;99.90
7738;DHT22;29398;45.328;5.558;2022-11-02T04:52:54;15.60;99.90
7738;DHT22;29398;45.328;5.558;2022-11-02T04:53:56;15.60;99.90
7738;DHT22;29398;45.328;5.558;2022-11-02T04:54:58;15.60;99.90
7738;DHT22;29398;45.328;5.558;2022-11-02T04:57:02;15.60;99.90
7738;DHT22;29398;45.328;5.558;2022-11-02T04:58:05;15.60;99.90
7738;DHT22;29398;45.328;5.558;2022-11-02T04:59:06;15.60;99.90
7738;DHT22;29398;45.328;5.558;2022-11-02T05:00:12;15.60;99.90
7738;DHT22;29398;45.328;5.558;2022-11-02T05:01:14;15.60;99.90
7738;DHT22;29398;45.328;5.558;2022-11-02T05:02:17;15.60;99.90
7738;DHT22;29398;45.328;5.558;2022-11-02T05:03:20;15.60;99.90
7738;DHT22;29398;45.328;5.558;2022-11-02T05:04:22;15.60;99.90
7738;DHT22;29398;45.328;5.558;2022-11-02T05:05:23;15.60;99.90
7738;DHT22;29398;45.328;5.558;2022-11-02T05:06:28;15.60;99.90
7738;DHT22;29398;45.328;5.558;2022-11-02T05:07:30;15.60;99.90
7738;DHT22;29398;45.328;5.558;2022-11-02T05:08:32;15.60;99.90
7738;DHT22;29398;45.328;5.558;2022-11-02T05:09:33;15.60;99.90
7738;DHT22;29398;45.328;5.558;2022-11-02T05:10:36;15.60;99.90
7738;DHT22;29398;45.328;5.558;2022-11-02T05:11:38;15.60;99.90
7738;DHT22;29398;45.328;5.558;2022-11-02T05:12:40;15.60;99.90
7738;DHT22;29398;45.328;5.558;2022-11-02T05:13:42;15.60;99.90
7738;DHT22;29398;45.328;5.558;2022-11-02T05:14:45;15.60;99.90
7738;DHT22;29398;45.328;5.558;2022-11-02T05:15:46;15.60;99.90
7738;DHT22;29398;45.328;5.558;2022-11-02T05:17:49;15.60;99.90
7738;DHT22;29398;45.328;5.558;2022-11-02T05:18:53;15.60;99.90
7738;DHT22;29398;45.328;5.558;2022-11-02T05:19:56;15.60;99.90
7738;DHT22;29398;45.328;5.558;2022-11-02T05:21:00;15.60;99.90
7738;DHT22;29398;45.328;5.558;2022-11-02T05:23:05;15.50;99.90
7738;DHT22;29398;45.328;5.558;2022-11-02T05:24:07;15.50;99.90
7738;DHT22;29398;45.328;5.558;2022-11-02T05:25:10;15.50;99.90
7738;DHT22;29398;45.328;5.558;2022-11-02T05:26:11;15.40;99.90
7738;DHT22;29398;45.328;5.558;2022-11-02T05:27:17;15.40;99.90
7738;DHT22;29398;45.328;5.558;2022-11-02T05:28:20;15.40;99.90
7738;DHT22;29398;45.328;5.558;2022-11-02T05:29:22;15.30;99.90
7738;DHT22;29398;45.328;5.558;2022-11-02T05:30:24;15.30;99.90
7738;DHT22;29398;45.328;5.558;2022-11-02T05:31:28;15.30;99.90
7738;DHT22;29398;45.328;5.558;2022-11-02T05:33:36;15.30;99.90
7738;DHT22;29398;45.328;5.558;2022-11-02T05:34:45;15.30;99.90
7738;DHT22;29398;45.328;5.558;2022-11-02T05:35:48;15.30;99.90
7738;DHT22;29398;45.328;5.558;2022-11-02T05:36:49;15.30;99.90
7738;DHT22;29398;45.328;5.558;2022-11-02T05:37:54;15.30;99.90
7738;DHT22;29398;45.328;5.558;2022-11-02T05:38:57;15.30;99.90
7738;DHT22;29398;45.328;5.558;2022-11-02T05:39:58;15.30;99.90
7738;DHT22;29398;45.328;5.558;2022-11-02T05:42:07;15.30;99.90
7738;DHT22;29398;45.328;5.558;2022-11-02T05:43:10;15.30;99.90
7738;DHT22;29398;45.328;5.558;2022-11-02T05:45:15;15.30;99.90
7738;DHT22;29398;45.328;5.558;2022-11-02T05:48:20;15.30;99.90
7738;DHT22;29398;45.328;5.558;2022-11-02T05:49:22;15.30;99.90
7738;DHT22;29398;45.328;5.558;2022-11-02T05:50:25;15.30;99.90
7738;DHT22;29398;45.328;5.558;2022-11-02T05:52:29;15.30;99.90
7738;DHT22;29398;45.328;5.558;2022-11-02T05:53:30;15.20;99.90
7738;DHT22;29398;45.328;5.558;2022-11-02T05:55:34;15.20;99.90
7738;DHT22;29398;45.328;5.558;2022-11-02T05:56:37;15.30;99.90
7738;DHT22;29398;45.328;5.558;2022-11-02T05:58:40;15.20;99.90
7738;DHT22;29398;45.328;5.558;2022-11-02T05:59:41;15.20;99.90
7738;DHT22;29398;45.328;5.558;2022-11-02T06:01:44;15.20;99.90
7738;DHT22;29398;45.328;5.558;2022-11-02T06:02:46;15.20;99.90
7738;DHT22;29398;45.328;5.558;2022-11-02T06:03:47;15.20;99.90
7738;DHT22;29398;45.328;5.558;2022-11-02T06:04:49;15.20;99.90
7738;DHT22;29398;45.328;5.558;2022-11-02T06:05:56;15.20;99.90
7738;DHT22;29398;45.328;5.558;2022-11-02T06:08:00;15.20;99.90
7738;DHT22;29398;45.328;5.558;2022-11-02T06:09:02;15.20;99.90
7738;DHT22;29398;45.328;5.558;2022-11-02T06:10:04;15.20;99.90
7738;DHT22;29398;45.328;5.558;2022-11-02T06:11:08;15.20;99.90
7738;DHT22;29398;45.328;5.558;2022-11-02T06:12:09;15.20;99.90
7738;DHT22;29398;45.328;5.558;2022-11-02T06:13:11;15.20;99.90
7738;DHT22;29398;45.328;5.558;2022-11-02T06:14:12;15.20;99.90
7738;DHT22;29398;45.328;5.558;2022-11-02T06:15:14;15.20;99.90
7738;DHT22;29398;45.328;5.558;2022-11-02T06:16:17;15.20;99.90
7738;DHT22;29398;45.328;5.558;2022-11-02T06:17:19;15.20;99.90
7738;DHT22;29398;45.328;5.558;2022-11-02T06:18:20;15.20;99.90
7738;DHT22;29398;45.328;5.558;2022-11-02T06:19:22;15.20;99.90
7738;DHT22;29398;45.328;5.558;2022-11-02T06:20:23;15.20;99.90
7738;DHT22;29398;45.328;5.558;2022-11-02T06:21:26;15.20;99.90
7738;DHT22;29398;45.328;5.558;2022-11-02T06:22:27;15.00;99.90
7738;DHT22;29398;45.328;5.558;2022-11-02T06:23:29;15.10;99.90
7738;DHT22;29398;45.328;5.558;2022-11-02T06:24:30;15.20;99.90
7738;DHT22;29398;45.328;5.558;2022-11-02T06:25:32;15.10;99.90
7738;DHT22;29398;45.328;5.558;2022-11-02T06:26:33;15.10;99.90
7738;DHT22;29398;45.328;5.558;2022-11-02T06:27:36;15.10;99.90
7738;DHT22;29398;45.328;5.558;2022-11-02T06:29:41;15.10;99.90
7738;DHT22;29398;45.328;5.558;2022-11-02T06:30:42;15.00;99.90
7738;DHT22;29398;45.328;5.558;2022-11-02T06:31:44;15.00;99.90
7738;DHT22;29398;45.328;5.558;2022-11-02T06:32:46;15.00;99.90
7738;DHT22;29398;45.328;5.558;2022-11-02T06:33:48;15.00;99.90
7738;DHT22;29398;45.328;5.558;2022-11-02T06:35:53;15.00;99.90
7738;DHT22;29398;45.328;5.558;2022-11-02T06:36:55;15.00;99.90
7738;DHT22;29398;45.328;5.558;2022-11-02T06:37:57;15.00;99.90
7738;DHT22;29398;45.328;5.558;2022-11-02T06:40:00;15.00;99.90
7738;DHT22;29398;45.328;5.558;2022-11-02T06:41:03;15.00;99.90
7738;DHT22;29398;45.328;5.558;2022-11-02T06:42:07;14.90;99.90
7738;DHT22;29398;45.328;5.558;2022-11-02T06:45:14;15.00;99.90
7738;DHT22;29398;45.328;5.558;2022-11-02T06:46:15;15.00;99.90
7738;DHT22;29398;45.328;5.558;2022-11-02T06:47:17;14.90;99.90
7738;DHT22;29398;45.328;5.558;2022-11-02T06:48:18;15.00;99.90
7738;DHT22;29398;45.328;5.558;2022-11-02T06:50:23;15.00;99.90
7738;DHT22;29398;45.328;5.558;2022-11-02T06:51:24;14.90;99.90
7738;DHT22;29398;45.328;5.558;2022-11-02T06:52:28;15.00;99.90
7738;DHT22;29398;45.328;5.558;2022-11-02T06:53:30;15.00;99.90
7738;DHT22;29398;45.328;5.558;2022-11-02T06:54:32;15.00;99.90
7738;DHT22;29398;45.328;5.558;2022-11-02T06:55:33;15.00;99.90
7738;DHT22;29398;45.328;5.558;2022-11-02T06:57:37;14.90;99.90
7738;DHT22;29398;45.328;5.558;2022-11-02T06:58:39;14.90;99.90
7738;DHT22;29398;45.328;5.558;2022-11-02T06:59:40;14.90;99.90
7738;DHT22;29398;45.328;5.558;2022-11-02T07:00:42;15.00;99.90
7738;DHT22;29398;45.328;5.558;2022-11-02T07:01:43;15.00;99.90
7738;DHT22;29398;45.328;5.558;2022-11-02T07:04:48;15.10;99.90
7738;DHT22;29398;45.328;5.558;2022-11-02T07:06:52;15.10;99.90
7738;DHT22;29398;45.328;5.558;2022-11-02T07:07:55;15.20;99.90
7738;DHT22;29398;45.328;5.558;2022-11-02T07:09:59;15.20;99.90
7738;DHT22;29398;45.328;5.558;2022-11-02T07:13:04;15.30;99.90
7738;DHT22;29398;45.328;5.558;2022-11-02T07:14:06;15.30;99.90
7738;DHT22;29398;45.328;5.558;2022-11-02T07:16:11;15.40;99.90
7738;DHT22;29398;45.328;5.558;2022-11-02T07:17:12;15.40;99.90
7738;DHT22;29398;45.328;5.558;2022-11-02T07:18:14;15.40;99.90
7738;DHT22;29398;45.328;5.558;2022-11-02T07:19:15;15.40;99.90
7738;DHT22;29398;45.328;5.558;2022-11-02T07:20:18;15.50;99.90
7738;DHT22;29398;45.328;5.558;2022-11-02T07:21:19;15.50;99.90
7738;DHT22;29398;45.328;5.558;2022-11-02T07:24:27;15.50;99.90
7738;DHT22;29398;45.328;5.558;2022-11-02T07:25:29;15.50;99.90
7738;DHT22;29398;45.328;5.558;2022-11-02T07:26:31;15.60;99.90
7738;DHT22;29398;45.328;5.558;2022-11-02T07:27:37;15.60;99.90
7738;DHT22;29398;45.328;5.558;2022-11-02T07:30:42;15.70;99.90
7738;DHT22;29398;45.328;5.558;2022-11-02T07:35:51;15.80;99.90
7738;DHT22;29398;45.328;5.558;2022-11-02T07:36:54;15.80;99.90
7738;DHT22;29398;45.328;5.558;2022-11-02T07:37:56;15.80;99.90
7738;DHT22;29398;45.328;5.558;2022-11-02T07:39:00;15.80;99.90
7738;DHT22;29398;45.328;5.558;2022-11-02T07:41:05;15.80;99.90
7738;DHT22;29398;45.328;5.558;2022-11-02T07:44:33;15.90;99.90
7738;DHT22;29398;45.328;5.558;2022-11-02T07:45:35;15.90;99.90
7738;DHT22;29398;45.328;5.558;2022-11-02T07:47:42;16.00;99.90
7738;DHT22;29398;45.328;5.558;2022-11-02T07:48:45;16.00;99.90
7738;DHT22;29398;45.328;5.558;2022-11-02T07:49:47;16.00;99.90
7738;DHT22;29398;45.328;5.558;2022-11-02T07:50:49;16.00;99.90
7738;DHT22;29398;45.328;5.558;2022-11-02T07:51:51;16.00;99.90
7738;DHT22;29398;45.328;5.558;2022-11-02T07:52:55;16.00;99.90
7738;DHT22;29398;45.328;5.558;2022-11-02T07:53:57;16.10;99.90
7738;DHT22;29398;45.328;5.558;2022-11-02T07:55:01;16.10;99.90
7738;DHT22;29398;45.328;5.558;2022-11-02T07:57:05;16.20;99.90
7738;DHT22;29398;45.328;5.558;2022-11-02T07:58:09;16.30;99.90
7738;DHT22;29398;45.328;5.558;2022-11-02T07:59:13;16.30;99.90
7738;DHT22;29398;45.328;5.558;2022-11-02T08:00:15;16.40;99.90
7738;DHT22;29398;45.328;5.558;2022-11-02T08:03:20;16.70;99.90
7738;DHT22;29398;45.328;5.558;2022-11-02T08:04:23;16.80;99.90
7738;DHT22;29398;45.328;5.558;2022-11-02T08:05:26;16.90;99.90
7738;DHT22;29398;45.328;5.558;2022-11-02T08:06:27;17.10;99.90
7738;DHT22;29398;45.328;5.558;2022-11-02T08:08:31;17.40;99.90
7738;DHT22;29398;45.328;5.558;2022-11-02T08:09:33;17.50;99.90
7738;DHT22;29398;45.328;5.558;2022-11-02T08:10:36;17.60;99.90
7738;DHT22;29398;45.328;5.558;2022-11-02T08:11:38;17.80;99.90
7738;DHT22;29398;45.328;5.558;2022-11-02T08:12:40;17.90;99.90
7738;DHT22;29398;45.328;5.558;2022-11-02T08:13:41;18.00;99.90
7738;DHT22;29398;45.328;5.558;2022-11-02T08:15:48;18.10;99.90
7738;DHT22;29398;45.328;5.558;2022-11-02T08:16:50;18.20;99.90
7738;DHT22;29398;45.328;5.558;2022-11-02T08:18:00;18.20;99.90
7738;DHT22;29398;45.328;5.558;2022-11-02T08:20:05;18.30;99.90
7738;DHT22;29398;45.328;5.558;2022-11-02T08:23:10;18.20;99.90
7738;DHT22;29398;45.328;5.558;2022-11-02T08:24:12;18.30;99.90
7738;DHT22;29398;45.328;5.558;2022-11-02T08:25:13;18.20;99.90
7738;DHT22;29398;45.328;5.558;2022-11-02T08:26:17;18.20;99.90
7738;DHT22;29398;45.328;5.558;2022-11-02T08:27:19;18.20;99.90
7738;DHT22;29398;45.328;5.558;2022-11-02T08:28:22;18.20;99.90